Time;durP1;ratioP1;P1;durP2;ratioP2;P2;SDS_P1;SDS_P2;PMS_P1;PMS_P2;Temp;Humidity;BMP_temperature;BMP_pressure;BME280_temperature;BME280_humidity;BME280_pressure;Samples;Min_cycle;Max_cycle;Signal;HPM_P1;HPM_P2
2023/04/17 00:00:14;;;;;;;7.03;6.43;;;9.40;99.90;;;;;;4930084;29;20235;-69
2023/04/17 00:02:41;;;;;;;7.67;6.97;;;9.40;99.90;;;;;;4930082;29;20287;-69
2023/04/17 00:05:08;;;;;;;7.20;6.60;;;9.40;99.90;;;;;;4929915;29;20277;-69
2023/04/17 00:07:37;;;;;;;8.53;7.40;;;9.40;99.90;;;;;;4930085;29;20296;-69
2023/04/17 00:10:06;;;;;;;8.37;7.57;;;9.40;99.90;;;;;;4930263;29;20220;-69
2023/04/17 00:12:34;;;;;;;7.87;7.07;;;9.40;99.90;;;;;;4930297;29;20311;-69
2023/04/17 00:15:01;;;;;;;8.43;7.40;;;9.40;99.90;;;;;;4929690;29;20236;-69
2023/04/17 00:17:28;;;;;;;7.40;6.80;;;9.30;99.90;;;;;;4929864;29;20327;-69
2023/04/17 00:19:55;;;;;;;8.00;7.17;;;9.30;99.90;;;;;;4929800;29;20338;-69
2023/04/17 00:22:22;;;;;;;7.93;7.13;;;9.30;99.90;;;;;;4929438;29;20931;-69
2023/04/17 00:24:49;;;;;;;8.37;7.57;;;9.20;99.90;;;;;;4929737;29;20211;-70
2023/04/17 00:27:16;;;;;;;8.30;7.60;;;9.30;99.90;;;;;;4929661;29;20303;-69
2023/04/17 00:29:44;;;;;;;8.57;7.77;;;9.20;99.90;;;;;;4929750;29;20331;-69
2023/04/17 00:32:11;;;;;;;8.90;7.93;;;9.20;99.90;;;;;;4929879;29;20287;-69
2023/04/17 00:34:39;;;;;;;8.77;7.73;;;9.20;99.90;;;;;;4929567;29;20216;-69
2023/04/17 00:37:06;;;;;;;8.83;7.93;;;9.20;99.90;;;;;;4929032;29;20273;-70
2023/04/17 00:39:33;;;;;;;7.97;7.27;;;9.20;99.90;;;;;;4928647;29;20340;-70
2023/04/17 00:42:00;;;;;;;8.17;7.30;;;9.20;99.90;;;;;;4935632;29;20263;-69
2023/04/17 00:44:27;;;;;;;7.80;7.00;;;9.20;99.90;;;;;;4928793;29;20267;-69
2023/04/17 00:46:55;;;;;;;8.87;7.93;;;9.20;99.90;;;;;;4929503;29;20587;-69
2023/04/17 00:49:23;;;;;;;8.77;7.97;;;9.20;99.90;;;;;;4929224;29;20834;-70
2023/04/17 00:51:51;;;;;;;10.37;7.80;;;9.30;99.90;;;;;;4929513;29;20216;-70
2023/04/17 00:54:19;;;;;;;8.80;7.50;;;9.20;99.90;;;;;;4929348;29;20282;-70
2023/04/17 00:56:46;;;;;;;7.60;7.00;;;9.20;99.90;;;;;;4929484;29;20298;-70
2023/04/17 00:59:17;;;;;;;8.23;7.53;;;9.20;99.90;;;;;;4921093;29;20351;-70
2023/04/17 01:01:44;;;;;;;8.30;7.47;;;9.20;99.90;;;;;;4910383;29;20212;-70
2023/04/17 01:04:12;;;;;;;7.97;7.27;;;9.20;99.90;;;;;;4914510;29;20204;-70
2023/04/17 01:06:40;;;;;;;9.17;7.60;;;9.20;99.90;;;;;;4928807;29;20311;-69
2023/04/17 01:09:08;;;;;;;8.90;7.20;;;9.20;99.90;;;;;;4929143;29;20306;-70
2023/04/17 01:11:35;;;;;;;9.40;7.57;;;9.20;99.90;;;;;;4928893;29;20235;-69
2023/04/17 01:14:02;;;;;;;8.40;7.60;;;9.20;99.90;;;;;;4933368;29;20215;-69
2023/04/17 01:16:29;;;;;;;8.47;7.67;;;9.20;99.90;;;;;;4938043;28;20239;-71
2023/04/17 01:18:58;;;;;;;8.43;7.63;;;9.10;99.90;;;;;;4929102;29;20212;-70
2023/04/17 01:21:26;;;;;;;10.97;7.57;;;9.10;99.90;;;;;;4929052;29;20327;-71
2023/04/17 01:23:53;;;;;;;11.30;8.17;;;9.10;99.90;;;;;;4928675;29;20223;-71
2023/04/17 01:26:23;;;;;;;8.40;7.60;;;9.10;99.90;;;;;;4929132;29;20290;-71
2023/04/17 01:28:51;;;;;;;9.27;7.80;;;9.10;99.90;;;;;;4928735;29;20296;-71
2023/04/17 01:31:18;;;;;;;8.00;7.27;;;9.10;99.90;;;;;;4924628;29;20676;-71
2023/04/17 01:33:45;;;;;;;9.07;7.70;;;9.10;99.90;;;;;;4928583;29;20304;-70
2023/04/17 01:36:12;;;;;;;8.77;7.40;;;9.00;99.90;;;;;;4928543;29;20216;-68
2023/04/17 01:38:39;;;;;;;9.03;7.23;;;9.00;99.90;;;;;;4928059;29;20244;-69
2023/04/17 01:41:09;;;;;;;9.77;7.50;;;9.00;99.90;;;;;;4927903;29;20263;-69
2023/04/17 01:43:40;;;;;;;8.57;7.30;;;8.90;99.90;;;;;;4928459;29;20224;-70
2023/04/17 01:46:07;;;;;;;9.87;7.93;;;8.90;99.90;;;;;;4928197;29;20208;-70
2023/04/17 01:48:34;;;;;;;9.83;8.10;;;8.90;99.90;;;;;;4927840;29;20650;-69
2023/04/17 01:51:01;;;;;;;8.50;7.73;;;8.90;99.90;;;;;;4928462;29;20298;-69
2023/04/17 01:53:29;;;;;;;10.23;7.93;;;9.00;99.90;;;;;;4928175;29;20212;-69
2023/04/17 01:55:56;;;;;;;8.40;7.60;;;8.90;99.90;;;;;;4928454;29;20216;-69
2023/04/17 01:58:23;;;;;;;8.40;7.60;;;9.00;99.90;;;;;;4928185;29;20588;-69
2023/04/17 02:00:52;;;;;;;8.70;7.80;;;8.90;99.90;;;;;;4927772;29;20287;-70
2023/04/17 02:03:19;;;;;;;8.40;7.47;;;8.90;99.90;;;;;;4928016;29;20216;-69
2023/04/17 02:05:46;;;;;;;8.90;8.00;;;8.90;99.90;;;;;;4928020;29;20212;-69
2023/04/17 02:08:13;;;;;;;8.30;7.50;;;8.90;99.90;;;;;;4920288;29;20220;-69
2023/04/17 02:10:41;;;;;;;8.70;7.87;;;8.90;99.90;;;;;;4916641;29;20287;-69
2023/04/17 02:13:08;;;;;;;7.87;7.17;;;8.90;99.90;;;;;;4928117;29;20299;-68
2023/04/17 02:15:35;;;;;;;9.30;7.93;;;8.90;99.90;;;;;;4927535;29;20640;-69
2023/04/17 02:18:04;;;;;;;8.77;7.10;;;8.90;99.90;;;;;;4927023;29;20684;-69
2023/04/17 02:20:31;;;;;;;8.60;7.80;;;8.90;99.90;;;;;;4927265;29;20244;-69
2023/04/17 02:22:59;;;;;;;8.73;7.83;;;8.80;99.90;;;;;;4927870;29;20240;-69
2023/04/17 02:25:26;;;;;;;9.40;7.53;;;8.80;99.90;;;;;;4926711;29;20208;-69
2023/04/17 02:27:55;;;;;;;10.30;7.80;;;8.70;99.90;;;;;;4925092;29;20272;-69
2023/04/17 02:30:22;;;;;;;10.60;8.00;;;8.70;99.90;;;;;;4925745;29;20769;-69
2023/04/17 02:32:50;;;;;;;9.17;8.03;;;8.70;99.90;;;;;;4926018;29;20286;-69
2023/04/17 02:35:19;;;;;;;9.57;7.73;;;8.70;99.90;;;;;;4926010;29;20569;-68
2023/04/17 02:37:46;;;;;;;8.97;7.70;;;8.70;99.90;;;;;;4926069;29;20310;-69
2023/04/17 02:40:13;;;;;;;9.87;8.47;;;8.60;99.90;;;;;;4925594;29;20314;-69
2023/04/17 02:42:40;;;;;;;8.57;7.63;;;8.70;99.90;;;;;;4925639;29;20283;-69
2023/04/17 02:45:08;;;;;;;10.10;8.17;;;8.70;99.90;;;;;;4926498;29;20686;-69
2023/04/17 02:47:35;;;;;;;10.97;7.57;;;8.60;99.90;;;;;;4926277;29;20299;-69
2023/04/17 02:50:03;;;;;;;8.40;7.60;;;8.60;99.90;;;;;;4926281;29;20666;-69
2023/04/17 02:52:32;;;;;;;9.17;7.67;;;8.60;99.90;;;;;;4925538;29;20319;-69
2023/04/17 02:54:59;;;;;;;9.40;8.40;;;8.50;99.90;;;;;;4926180;29;20216;-68
2023/04/17 02:57:26;;;;;;;9.80;7.97;;;8.50;99.90;;;;;;4926046;29;20212;-71
2023/04/17 02:59:53;;;;;;;9.93;8.27;;;8.40;99.90;;;;;;4925160;29;20267;-69
2023/04/17 03:02:21;;;;;;;10.20;8.47;;;8.40;99.90;;;;;;4928944;29;20212;-69
2023/04/17 03:04:49;;;;;;;9.33;7.87;;;8.40;99.90;;;;;;4929295;29;20204;-68
2023/04/17 03:07:18;;;;;;;10.97;7.90;;;8.40;99.90;;;;;;4930596;29;20212;-69
2023/04/17 03:09:46;;;;;;;9.83;8.40;;;8.40;99.90;;;;;;4929856;29;20299;-68
2023/04/17 03:12:14;;;;;;;9.23;8.33;;;8.50;99.90;;;;;;4930291;29;20314;-68
2023/04/17 03:14:41;;;;;;;8.63;7.87;;;8.40;99.90;;;;;;4929859;29;20219;-68
2023/04/17 03:17:08;;;;;;;11.87;8.70;;;8.50;99.90;;;;;;4929314;29;21120;-69
2023/04/17 03:19:35;;;;;;;8.80;8.00;;;8.40;99.90;;;;;;4930030;29;20223;-69
2023/04/17 03:22:02;;;;;;;9.13;7.80;;;8.40;99.90;;;;;;4929912;29;20259;-69
2023/04/17 03:24:30;;;;;;;9.50;8.10;;;8.40;99.90;;;;;;4929965;29;20219;-68
2023/04/17 03:26:58;;;;;;;11.63;8.87;;;8.40;99.90;;;;;;4930919;29;20220;-69
2023/04/17 03:29:25;;;;;;;10.27;8.37;;;8.40;99.90;;;;;;4930519;29;20741;-69
2023/04/17 03:31:52;;;;;;;9.40;8.20;;;8.40;99.90;;;;;;4930811;29;20742;-69
2023/04/17 03:34:20;;;;;;;12.53;8.47;;;8.40;99.90;;;;;;4930437;29;20303;-68
2023/04/17 03:36:47;;;;;;;8.97;8.07;;;8.40;99.90;;;;;;4930810;29;20215;-69
2023/04/17 03:39:14;;;;;;;9.90;8.73;;;8.40;99.90;;;;;;4930779;29;20602;-68
2023/04/17 03:41:41;;;;;;;10.07;8.73;;;8.40;99.90;;;;;;4930515;29;20246;-68
2023/04/17 03:44:09;;;;;;;10.13;8.47;;;8.40;99.90;;;;;;4930543;29;20216;-69
2023/04/17 03:46:36;;;;;;;10.57;8.73;;;8.30;99.90;;;;;;4930255;29;20205;-68
2023/04/17 03:49:03;;;;;;;10.40;8.20;;;8.30;99.90;;;;;;4930288;29;20259;-69
2023/04/17 03:51:30;;;;;;;9.73;8.73;;;8.30;99.90;;;;;;4930468;29;20213;-68
2023/04/17 03:53:57;;;;;;;10.20;8.67;;;8.40;99.90;;;;;;4930283;29;20251;-68
2023/04/17 03:56:24;;;;;;;10.00;8.70;;;8.30;99.90;;;;;;4930230;29;20212;-68
2023/04/17 03:58:51;;;;;;;10.07;9.03;;;8.30;99.90;;;;;;4929728;29;20216;-69
2023/04/17 04:01:21;;;;;;;9.77;8.77;;;8.30;99.90;;;;;;4929853;29;20326;-69
2023/04/17 04:03:48;;;;;;;10.30;8.93;;;8.20;99.90;;;;;;4930025;29;20212;-69
2023/04/17 04:06:19;;;;;;;9.50;8.57;;;8.20;99.90;;;;;;4930248;29;20211;-68
2023/04/17 04:08:46;;;;;;;9.47;8.20;;;8.20;99.90;;;;;;4930100;29;20283;-69
2023/04/17 04:11:13;;;;;;;9.97;8.70;;;8.10;99.90;;;;;;4929982;29;20768;-69
2023/04/17 04:13:40;;;;;;;9.53;8.70;;;8.10;99.90;;;;;;4929554;29;20216;-68
2023/04/17 04:16:08;;;;;;;10.60;9.03;;;8.10;99.90;;;;;;4929543;29;20212;-69
2023/04/17 04:18:36;;;;;;;11.53;9.60;;;8.10;99.90;;;;;;4929270;29;20212;-68
2023/04/17 04:21:04;;;;;;;10.83;8.97;;;8.00;99.90;;;;;;4929707;29;20275;-68
2023/04/17 04:23:32;;;;;;;10.53;9.13;;;8.00;99.90;;;;;;4929493;29;20212;-68
2023/04/17 04:26:01;;;;;;;9.60;8.77;;;8.00;99.90;;;;;;4929835;29;20299;-69
2023/04/17 04:28:29;;;;;;;10.30;9.27;;;8.00;99.90;;;;;;4929390;29;20300;-69
2023/04/17 04:30:57;;;;;;;10.60;9.50;;;7.90;99.90;;;;;;4929856;29;20224;-69
2023/04/17 04:33:24;;;;;;;12.17;10.40;;;7.80;99.90;;;;;;4929575;29;20671;-69
2023/04/17 04:35:55;;;;;;;11.63;9.43;;;7.80;99.90;;;;;;4929372;29;20910;-69
2023/04/17 04:38:29;;;;;;;10.27;8.83;;;7.80;99.90;;;;;;4929781;29;20854;-69
2023/04/17 04:41:00;;;;;;;13.37;9.50;;;7.80;99.90;;;;;;4929282;29;20279;-68
2023/04/17 04:43:31;;;;;;;13.13;10.10;;;7.90;99.90;;;;;;4929188;29;20319;-69
2023/04/17 04:45:57;;;;;;;11.83;9.50;;;7.90;99.90;;;;;;4929150;29;20752;-69
2023/04/17 04:48:24;;;;;;;12.33;9.50;;;8.00;99.90;;;;;;4929044;29;20212;-69
2023/04/17 04:50:52;;;;;;;10.80;9.70;;;8.00;99.90;;;;;;4928612;29;20216;-69
2023/04/17 04:53:19;;;;;;;13.00;9.70;;;8.00;99.90;;;;;;4928790;29;21037;-69
2023/04/17 04:55:46;;;;;;;12.37;10.23;;;8.00;99.90;;;;;;4928671;29;20208;-69
2023/04/17 04:58:13;;;;;;;11.27;9.90;;;7.90;99.90;;;;;;4928714;29;20243;-68
2023/04/17 05:00:40;;;;;;;10.77;9.30;;;7.90;99.90;;;;;;4928614;29;20485;-68
2023/04/17 05:03:07;;;;;;;12.07;9.70;;;7.90;99.90;;;;;;4928732;29;20220;-68
2023/04/17 05:05:34;;;;;;;11.13;9.93;;;7.90;99.90;;;;;;4927378;29;20215;-69
2023/04/17 05:08:03;;;;;;;13.53;10.23;;;7.90;99.90;;;;;;4928844;29;20216;-69
2023/04/17 05:10:32;;;;;;;13.03;10.67;;;7.90;99.90;;;;;;4928684;29;20251;-68
2023/04/17 05:12:59;;;;;;;13.90;10.30;;;7.90;99.90;;;;;;4928720;29;20212;-69
2023/04/17 05:15:26;;;;;;;11.50;10.30;;;7.90;99.90;;;;;;4934194;29;20738;-69
2023/04/17 05:17:53;;;;;;;12.03;10.67;;;8.00;99.90;;;;;;4909513;29;20252;-69
2023/04/17 05:20:20;;;;;;;11.20;10.03;;;8.00;99.90;;;;;;4909417;29;20790;-69
2023/04/17 05:22:48;;;;;;;12.67;10.57;;;8.00;99.90;;;;;;4921102;29;20223;-69
2023/04/17 05:25:18;;;;;;;14.43;11.63;;;8.00;99.90;;;;;;4927791;29;20212;-69
2023/04/17 05:27:46;;;;;;;11.40;10.23;;;8.00;99.90;;;;;;4928185;29;20203;-69
2023/04/17 05:30:14;;;;;;;16.73;12.00;;;7.90;99.90;;;;;;4928060;29;20229;-69
2023/04/17 05:32:41;;;;;;;13.37;11.60;;;7.90;99.90;;;;;;4927917;29;20259;-69
2023/04/17 05:35:08;;;;;;;14.47;11.20;;;7.90;99.90;;;;;;4927918;29;20216;-69
2023/04/17 05:37:35;;;;;;;13.33;11.37;;;7.90;99.90;;;;;;4923607;29;20217;-69
2023/04/17 05:40:05;;;;;;;15.00;11.43;;;8.00;99.90;;;;;;4909187;29;20209;-68
2023/04/17 05:42:34;;;;;;;12.27;10.97;;;8.00;99.90;;;;;;4909207;29;20244;-69
2023/04/17 05:45:01;;;;;;;13.97;11.03;;;8.10;99.90;;;;;;4909209;29;20323;-69
2023/04/17 05:47:28;;;;;;;11.90;10.80;;;8.10;99.90;;;;;;4909303;29;20396;-68
2023/04/17 05:49:56;;;;;;;13.73;11.73;;;8.10;99.90;;;;;;4909514;29;20208;-68
2023/04/17 05:52:24;;;;;;;12.27;11.03;;;8.10;99.90;;;;;;4910520;29;20611;-68
2023/04/17 05:54:51;;;;;;;12.63;11.17;;;8.20;99.90;;;;;;4928144;29;20872;-68
2023/04/17 05:57:18;;;;;;;12.93;11.47;;;8.20;99.90;;;;;;4928393;29;20224;-68
2023/04/17 05:59:47;;;;;;;13.13;11.50;;;8.20;99.90;;;;;;4927712;29;20766;-68
2023/04/17 06:02:15;;;;;;;13.87;11.47;;;8.20;99.90;;;;;;4928311;29;20240;-68
2023/04/17 06:04:42;;;;;;;12.40;11.07;;;8.20;99.90;;;;;;4927983;29;20223;-68
2023/04/17 06:07:10;;;;;;;13.17;11.80;;;8.30;99.90;;;;;;4927916;29;20285;-68
2023/04/17 06:09:37;;;;;;;18.37;12.40;;;8.30;99.90;;;;;;4928084;29;20216;-68
2023/04/17 06:12:04;;;;;;;12.67;11.37;;;8.30;99.90;;;;;;4927861;29;20327;-68
2023/04/17 06:14:31;;;;;;;17.27;11.93;;;8.30;99.90;;;;;;4927585;29;20216;-68
2023/04/17 06:16:59;;;;;;;14.97;12.23;;;8.30;99.90;;;;;;4927764;29;20244;-68
2023/04/17 06:19:26;;;;;;;14.13;11.73;;;8.30;99.90;;;;;;4927644;29;20308;-68
2023/04/17 06:21:53;;;;;;;15.27;12.60;;;8.40;99.90;;;;;;4928018;29;20299;-68
2023/04/17 06:24:20;;;;;;;13.37;11.83;;;8.30;99.90;;;;;;4928135;29;20291;-68
2023/04/17 06:26:47;;;;;;;15.20;12.90;;;8.30;99.90;;;;;;4928002;29;20255;-68
2023/04/17 06:29:14;;;;;;;15.97;12.77;;;8.30;99.90;;;;;;4920337;29;20304;-69
2023/04/17 06:31:41;;;;;;;13.90;12.47;;;8.30;99.90;;;;;;4909085;29;20299;-68
2023/04/17 06:34:10;;;;;;;15.80;12.30;;;8.30;99.90;;;;;;4915194;29;20212;-68
2023/04/17 06:36:37;;;;;;;14.00;12.53;;;8.40;99.90;;;;;;4929569;29;20243;-68
2023/04/17 06:39:04;;;;;;;14.13;12.50;;;8.50;99.90;;;;;;4931494;29;20247;-68
2023/04/17 06:41:31;;;;;;;14.33;12.67;;;8.40;99.90;;;;;;4931410;29;20330;-68
2023/04/17 06:43:58;;;;;;;16.27;13.40;;;8.50;99.90;;;;;;4931524;29;20312;-68
2023/04/17 06:46:25;;;;;;;16.47;12.80;;;8.50;99.90;;;;;;4931330;29;20758;-68
2023/04/17 06:48:56;;;;;;;17.03;13.63;;;8.50;99.90;;;;;;4928712;29;20644;-68
2023/04/17 06:51:26;;;;;;;15.80;13.37;;;8.50;99.90;;;;;;4912409;29;20209;-68
2023/04/17 06:53:53;;;;;;;16.67;13.53;;;8.50;99.90;;;;;;4912433;29;20630;-68
2023/04/17 06:56:21;;;;;;;16.27;13.20;;;8.60;99.90;;;;;;4912244;29;20320;-68
2023/04/17 06:58:48;;;;;;;14.47;12.97;;;8.60;99.90;;;;;;4916416;29;20315;-68
2023/04/17 07:01:15;;;;;;;14.33;12.60;;;8.50;99.90;;;;;;4931168;29;20318;-68
2023/04/17 07:03:43;;;;;;;17.43;13.50;;;8.60;99.90;;;;;;4931148;29;20299;-68
2023/04/17 07:06:10;;;;;;;19.27;13.77;;;8.60;99.90;;;;;;4931178;29;20266;-68
2023/04/17 07:08:38;;;;;;;15.90;14.13;;;8.60;99.90;;;;;;4935662;29;20335;-68
2023/04/17 07:11:06;;;;;;;18.10;15.30;;;8.70;99.90;;;;;;4950568;28;20212;-68
2023/04/17 07:13:33;;;;;;;17.40;13.83;;;8.70;99.90;;;;;;4950351;28;20211;-68
2023/04/17 07:16:00;;;;;;;16.57;14.10;;;8.80;99.90;;;;;;4932798;28;20235;-68
2023/04/17 07:18:28;;;;;;;18.53;14.10;;;8.80;99.90;;;;;;4931166;29;20283;-68
2023/04/17 07:20:55;;;;;;;18.97;14.33;;;8.80;99.90;;;;;;4930796;29;20304;-68
2023/04/17 07:23:22;;;;;;;15.53;13.93;;;8.80;99.90;;;;;;4930995;29;20559;-68
2023/04/17 07:25:51;;;;;;;16.27;14.27;;;8.90;99.90;;;;;;4930594;29;20817;-68
2023/04/17 07:28:18;;;;;;;15.97;13.23;;;8.90;99.90;;;;;;4930871;29;20218;-68
2023/04/17 07:30:45;;;;;;;16.23;13.70;;;9.00;99.90;;;;;;4930452;29;20231;-68
2023/04/17 07:33:12;;;;;;;17.27;13.90;;;9.00;99.90;;;;;;4930963;29;21049;-69
2023/04/17 07:35:39;;;;;;;17.87;13.57;;;9.10;99.90;;;;;;4930722;29;20238;-68
2023/04/17 07:38:09;;;;;;;16.87;14.07;;;9.10;99.90;;;;;;4930767;29;20212;-68
2023/04/17 07:40:36;;;;;;;18.50;14.53;;;9.20;99.90;;;;;;4930644;29;20695;-68
2023/04/17 07:43:05;;;;;;;15.33;13.33;;;9.20;99.90;;;;;;4930876;29;20655;-68
2023/04/17 07:45:32;;;;;;;19.33;13.60;;;9.20;99.90;;;;;;4930482;29;20315;-68
2023/04/17 07:47:59;;;;;;;17.20;13.33;;;9.20;99.90;;;;;;4930568;29;20219;-68
2023/04/17 07:50:26;;;;;;;16.23;13.83;;;9.30;99.90;;;;;;4930573;29;20984;-68
2023/04/17 07:52:53;;;;;;;16.20;13.33;;;9.30;99.90;;;;;;4931038;29;20483;-68
2023/04/17 07:55:20;;;;;;;18.00;12.67;;;9.30;99.90;;;;;;4930629;29;20212;-68
2023/04/17 07:57:50;;;;;;;17.97;13.87;;;9.40;99.90;;;;;;4930332;29;20675;-68
2023/04/17 08:00:20;;;;;;;15.47;13.23;;;9.40;99.90;;;;;;4930297;29;20219;-68
2023/04/17 08:02:47;;;;;;;15.17;13.57;;;9.40;99.90;;;;;;4930260;29;20773;-68
2023/04/17 08:05:14;;;;;;;13.73;12.20;;;9.50;99.90;;;;;;4929784;29;20699;-68
2023/04/17 08:07:42;;;;;;;16.90;13.00;;;9.60;99.90;;;;;;4929808;29;20409;-68
2023/04/17 08:10:09;;;;;;;16.10;13.47;;;9.60;99.90;;;;;;4930155;29;20964;-68
2023/04/17 08:12:36;;;;;;;15.73;12.67;;;9.70;99.90;;;;;;4929619;29;20304;-68
2023/04/17 08:15:04;;;;;;;15.97;13.00;;;9.70;99.90;;;;;;4929861;29;20267;-68
2023/04/17 08:17:32;;;;;;;15.50;13.03;;;9.70;99.90;;;;;;4929510;29;20793;-68
2023/04/17 08:20:01;;;;;;;17.77;12.90;;;9.70;99.90;;;;;;4929963;29;20223;-68
2023/04/17 08:22:28;;;;;;;16.50;14.13;;;9.80;99.90;;;;;;4929511;29;20744;-68
2023/04/17 08:24:57;;;;;;;14.63;13.10;;;9.80;99.90;;;;;;4929754;29;20666;-68
2023/04/17 08:27:24;;;;;;;17.33;14.00;;;9.90;99.90;;;;;;4929960;29;20219;-70
2023/04/17 08:29:52;;;;;;;16.07;14.13;;;9.90;99.90;;;;;;4929727;29;20979;-68
2023/04/17 08:32:19;;;;;;;17.20;14.00;;;10.00;99.90;;;;;;4929916;29;20208;-68
2023/04/17 08:34:48;;;;;;;16.93;13.23;;;10.00;99.90;;;;;;4930079;29;20216;-68
2023/04/17 08:37:14;;;;;;;13.73;12.27;;;10.10;99.90;;;;;;4930103;29;20208;-68
2023/04/17 08:39:41;;;;;;;15.13;11.70;;;10.20;99.90;;;;;;4929767;29;20343;-68
2023/04/17 08:42:10;;;;;;;14.97;12.03;;;10.20;99.90;;;;;;4929849;29;20242;-69
2023/04/17 08:44:37;;;;;;;14.07;12.00;;;10.20;99.90;;;;;;4929110;29;20218;-68
2023/04/17 08:47:07;;;;;;;14.37;12.70;;;10.20;99.90;;;;;;4929804;29;20298;-68
2023/04/17 08:49:35;;;;;;;13.10;11.80;;;10.10;99.90;;;;;;4929655;29;20220;-68
2023/04/17 08:52:04;;;;;;;14.10;12.40;;;10.20;99.90;;;;;;4929434;29;20287;-68
2023/04/17 08:54:33;;;;;;;13.93;10.87;;;10.10;99.90;;;;;;4929497;29;20212;-68
2023/04/17 08:57:02;;;;;;;14.03;11.30;;;10.10;99.90;;;;;;4929460;29;20209;-68
2023/04/17 08:59:29;;;;;;;13.00;10.87;;;10.10;99.90;;;;;;4927906;29;20239;-68
2023/04/17 09:02:00;;;;;;;14.10;11.07;;;10.10;99.90;;;;;;4929204;29;20668;-68
2023/04/17 09:04:38;;;;;;;12.53;10.27;;;10.10;99.90;;;;;;4928821;29;20208;-68
2023/04/17 09:07:07;;;;;;;11.70;10.50;;;10.10;99.90;;;;;;4923228;29;20213;-68
2023/04/17 09:09:51;;;;;;;10.80;9.77;;;10.20;99.90;;;;;;4910325;29;21106;-68
2023/04/17 09:12:18;;;;;;;13.10;10.60;;;10.20;99.90;;;;;;4910315;29;20204;-68
2023/04/17 09:14:46;;;;;;;11.33;10.13;;;10.30;99.90;;;;;;4910126;29;20661;-68
2023/04/17 09:17:16;;;;;;;17.30;11.37;;;10.40;99.90;;;;;;4923686;29;20248;-68
2023/04/17 09:20:05;;;;;;;12.03;10.60;;;10.50;99.90;;;;;;4929063;29;20224;-68
2023/04/17 09:22:34;;;;;;;12.13;10.17;;;10.60;99.90;;;;;;4928855;29;20240;-69
2023/04/17 09:25:01;;;;;;;11.90;9.47;;;10.70;99.90;;;;;;4928808;29;20721;-68
2023/04/17 09:27:29;;;;;;;10.60;9.50;;;10.80;99.90;;;;;;4928515;29;20216;-68
2023/04/17 09:29:57;;;;;;;10.77;9.77;;;10.90;99.90;;;;;;4928444;29;20306;-68
2023/04/17 09:32:24;;;;;;;11.47;9.03;;;11.00;99.90;;;;;;4928534;29;20215;-68
2023/04/17 09:34:52;;;;;;;13.17;9.80;;;11.00;99.90;;;;;;4928339;29;20695;-68
2023/04/17 09:37:19;;;;;;;11.07;9.97;;;10.90;99.90;;;;;;4928242;29;20239;-68
2023/04/17 09:39:58;;;;;;;11.00;9.70;;;11.00;99.90;;;;;;4928383;29;20742;-68
2023/04/17 09:42:25;;;;;;;10.50;9.53;;;11.00;99.90;;;;;;4928213;29;20239;-68
2023/04/17 09:44:53;;;;;;;12.17;9.13;;;11.00;99.90;;;;;;4928494;29;20247;-68
2023/04/17 09:47:21;;;;;;;13.70;9.70;;;11.00;99.90;;;;;;4928674;29;20786;-68
2023/04/17 09:49:51;;;;;;;10.70;9.60;;;11.00;99.90;;;;;;4928449;29;20216;-68
2023/04/17 09:52:19;;;;;;;11.40;8.40;;;11.20;99.90;;;;;;4928139;29;20212;-68
2023/04/17 09:54:48;;;;;;;9.50;8.43;;;11.30;99.90;;;;;;4928502;29;20212;-68
2023/04/17 09:57:17;;;;;;;9.90;7.97;;;11.30;99.90;;;;;;4928374;29;20224;-68
2023/04/17 09:59:47;;;;;;;11.93;8.47;;;11.40;99.90;;;;;;4928127;29;20511;-69
2023/04/17 10:02:16;;;;;;;9.60;8.63;;;11.60;99.90;;;;;;4928318;29;20228;-68
2023/04/17 10:04:44;;;;;;;9.87;8.80;;;11.60;99.90;;;;;;4927812;29;20867;-68
2023/04/17 10:07:12;;;;;;;9.53;8.63;;;11.70;99.90;;;;;;4928549;29;20315;-68
2023/04/17 10:09:41;;;;;;;10.63;9.53;;;11.70;99.90;;;;;;4928129;29;20248;-68
2023/04/17 10:12:13;;;;;;;9.93;8.80;;;11.80;99.90;;;;;;4928580;29;20216;-68
2023/04/17 10:14:45;;;;;;;9.90;8.90;;;11.70;99.90;;;;;;4927753;29;20667;-68
2023/04/17 10:17:27;;;;;;;8.50;7.70;;;11.70;99.90;;;;;;4927924;29;20243;-68
2023/04/17 10:19:54;;;;;;;8.63;7.80;;;11.60;99.90;;;;;;4928027;29;20208;-68
2023/04/17 10:22:39;;;;;;;11.13;8.80;;;11.60;99.90;;;;;;4928087;29;20599;-68
2023/04/17 10:25:23;;;;;;;9.03;8.13;;;11.60;99.90;;;;;;4928146;29;20192;-68
2023/04/17 10:27:57;;;;;;;11.17;8.30;;;11.70;99.90;;;;;;4928222;29;20320;-69
2023/04/17 10:30:40;;;;;;;7.90;7.17;;;11.90;99.90;;;;;;4927977;29;20216;-68
2023/04/17 10:33:23;;;;;;;9.17;8.27;;;12.00;99.90;;;;;;4927723;29;20208;-68
2023/04/17 10:35:51;;;;;;;8.63;7.80;;;12.20;99.90;;;;;;4927854;29;20230;-68
2023/04/17 10:38:31;;;;;;;9.13;8.13;;;12.30;99.90;;;;;;4927516;29;20644;-69
2023/04/17 10:41:03;;;;;;;9.10;7.80;;;12.50;99.90;;;;;;4927825;29;20302;-68
2023/04/17 10:43:30;;;;;;;10.90;7.80;;;12.40;99.90;;;;;;4927411;29;20235;-68
2023/04/17 10:46:02;;;;;;;7.83;7.00;;;12.40;99.90;;;;;;4927800;29;20294;-68
2023/04/17 10:48:33;;;;;;;10.10;9.13;;;12.40;99.90;;;;;;4927348;29;20303;-68
2023/04/17 10:51:02;;;;;;;8.97;8.07;;;12.50;99.90;;;;;;4927544;29;20201;-68
2023/04/17 10:53:43;;;;;;;8.20;7.40;;;12.50;99.90;;;;;;4937003;29;20211;-68
2023/04/17 10:56:11;;;;;;;9.47;8.07;;;12.60;99.90;;;;;;4946602;28;20215;-68
2023/04/17 10:58:39;;;;;;;12.13;8.07;;;12.70;99.90;;;;;;4943111;28;20805;-68
2023/04/17 11:01:11;;;;;;;9.57;7.77;;;12.70;99.90;;;;;;4945649;29;20298;-69
2023/04/17 11:03:40;;;;;;;12.00;7.63;;;12.70;99.90;;;;;;4946730;28;20239;-68
2023/04/17 11:06:09;;;;;;;8.13;7.20;;;12.80;99.90;;;;;;4946490;28;20235;-68
2023/04/17 11:08:36;;;;;;;10.30;8.47;;;12.90;99.90;;;;;;4946511;28;20298;-68
2023/04/17 11:11:03;;;;;;;9.53;8.53;;;13.10;99.90;;;;;;4946626;28;20294;-68
2023/04/17 11:13:34;;;;;;;9.93;8.10;;;13.20;99.90;;;;;;4946315;28;20207;-68
2023/04/17 11:16:03;;;;;;;9.07;7.73;;;13.20;99.90;;;;;;4934911;28;20291;-69
2023/04/17 11:18:31;;;;;;;8.73;7.63;;;13.20;99.90;;;;;;4927604;29;20228;-68
2023/04/17 11:20:58;;;;;;;8.50;7.77;;;13.30;99.90;;;;;;4927640;29;20295;-68
2023/04/17 11:23:32;;;;;;;9.23;8.00;;;13.30;99.90;;;;;;4930379;29;20242;-69
2023/04/17 11:25:59;;;;;;;9.13;8.03;;;13.30;99.90;;;;;;4930918;29;20196;-68
2023/04/17 11:28:27;;;;;;;9.83;7.63;;;13.30;99.90;;;;;;4930826;29;20291;-68
2023/04/17 11:30:54;;;;;;;9.33;7.07;;;13.40;99.90;;;;;;4930428;29;20208;-68
2023/04/17 11:33:21;;;;;;;9.57;6.87;;;13.40;99.90;;;;;;4930737;29;20212;-68
2023/04/17 11:35:51;;;;;;;8.10;7.40;;;13.50;99.90;;;;;;4930497;29;20667;-68
2023/04/17 11:38:20;;;;;;;9.40;7.53;;;13.50;99.90;;;;;;4930867;29;20650;-68
2023/04/17 11:40:51;;;;;;;14.10;8.00;;;13.50;99.90;;;;;;4930421;29;20602;-68
2023/04/17 11:43:18;;;;;;;8.30;7.50;;;13.50;99.90;;;;;;4930623;29;20643;-68
2023/04/17 11:45:46;;;;;;;8.33;7.47;;;13.40;99.90;;;;;;4930411;29;20243;-69
2023/04/17 11:48:14;;;;;;;9.87;7.73;;;13.30;99.90;;;;;;4930429;29;20318;-69
2023/04/17 11:50:43;;;;;;;8.40;7.20;;;13.30;99.90;;;;;;4929829;29;21097;-68
2023/04/17 11:53:15;;;;;;;8.13;7.00;;;13.30;99.90;;;;;;4930178;29;20961;-68
2023/04/17 11:55:42;;;;;;;10.07;7.43;;;13.50;99.90;;;;;;4930168;29;20204;-68
2023/04/17 11:58:10;;;;;;;8.50;7.43;;;13.70;99.90;;;;;;4930150;29;20223;-68
2023/04/17 12:00:39;;;;;;;8.73;7.67;;;13.80;99.90;;;;;;4929483;29;20212;-68
2023/04/17 12:03:30;;;;;;;8.53;7.53;;;13.80;99.90;;;;;;4929901;29;20239;-69
2023/04/17 12:06:01;;;;;;;8.20;7.40;;;13.80;99.90;;;;;;4930176;29;20207;-68
2023/04/17 12:08:30;;;;;;;12.07;7.43;;;13.80;99.90;;;;;;4913728;29;20304;-69
2023/04/17 12:10:58;;;;;;;9.83;7.43;;;13.80;99.90;;;;;;4912322;29;20212;-68
2023/04/17 12:13:25;;;;;;;10.23;7.20;;;13.80;99.90;;;;;;4929910;29;20208;-69
2023/04/17 12:15:52;;;;;;;10.90;8.00;;;13.80;99.90;;;;;;4929969;29;20216;-70
2023/04/17 12:18:19;;;;;;;10.00;6.70;;;13.80;99.90;;;;;;4930090;29;20234;-68
2023/04/17 12:20:46;;;;;;;8.03;7.33;;;13.80;99.90;;;;;;4929563;29;20247;-68
2023/04/17 12:23:13;;;;;;;8.13;7.33;;;13.80;99.90;;;;;;4929665;29;20303;-68
2023/04/17 12:25:41;;;;;;;9.67;7.03;;;13.80;99.90;;;;;;4929781;29;20722;-69
2023/04/17 12:28:08;;;;;;;9.60;7.20;;;13.70;99.90;;;;;;4929549;29;20314;-69
2023/04/17 12:30:38;;;;;;;7.90;7.10;;;13.70;99.90;;;;;;4911144;29;20227;-68
2023/04/17 12:33:06;;;;;;;8.87;7.00;;;13.60;99.90;;;;;;4911380;29;20342;-69
2023/04/17 12:35:33;;;;;;;10.03;7.30;;;13.50;99.90;;;;;;4910333;29;20303;-68
2023/04/17 12:38:00;;;;;;;9.10;7.23;;;13.50;99.90;;;;;;4910332;29;20212;-68
2023/04/17 12:40:27;;;;;;;10.53;7.97;;;13.40;99.90;;;;;;4922925;29;20235;-68
2023/04/17 12:42:55;;;;;;;7.97;6.93;;;13.30;99.90;;;;;;4928920;29;20216;-68
2023/04/17 12:45:22;;;;;;;11.33;7.60;;;13.10;99.90;;;;;;4928982;29;20586;-68
2023/04/17 12:47:49;;;;;;;7.70;7.03;;;13.00;99.90;;;;;;4929249;29;20771;-68
2023/04/17 12:50:16;;;;;;;7.67;7.07;;;12.80;99.90;;;;;;4929427;29;20644;-68